createdAt,value
2022-12-31T00:02:54.360Z,16.20
2022-12-31T00:07:51.711Z,15.70
2022-12-31T00:12:49.068Z,19.83
2022-12-31T00:17:46.322Z,19.25
2022-12-31T00:22:43.538Z,21.92
2022-12-31T00:27:40.748Z,21.80
2022-12-31T00:32:38.027Z,24.90
2022-12-31T00:37:35.338Z,20.30
2022-12-31T00:42:33.011Z,28.13
2022-12-31T00:47:30.391Z,24.05
2022-12-31T00:52:27.945Z,22.60
2022-12-31T00:57:25.382Z,15.68
2022-12-31T01:02:22.659Z,16.05
2022-12-31T01:07:20.170Z,16.00
2022-12-31T01:12:17.417Z,17.30
2022-12-31T01:17:14.740Z,19.98
2022-12-31T01:22:12.340Z,18.27
2022-12-31T01:27:10.092Z,18.52
2022-12-31T01:32:10.055Z,16.15
2022-12-31T01:42:04.559Z,13.50
2022-12-31T01:47:04.204Z,21.10
2022-12-31T01:52:12.872Z,17.75
2022-12-31T01:57:11.298Z,19.75
2022-12-31T02:02:08.698Z,16.33
2022-12-31T02:07:08.972Z,15.82
2022-12-31T02:12:08.631Z,17.88
2022-12-31T02:17:18.978Z,15.15
2022-12-31T02:22:46.884Z,14.20
2022-12-31T02:28:08.182Z,15.18
2022-12-31T02:33:23.836Z,15.27
2022-12-31T02:38:35.889Z,17.20
2022-12-31T02:43:33.492Z,12.25
2022-12-31T02:48:47.099Z,15.57
2022-12-31T02:53:48.112Z,19.45
2022-12-31T02:59:16.996Z,18.13
2022-12-31T03:04:32.293Z,14.02
2022-12-31T03:09:30.278Z,13.30
2022-12-31T03:14:28.380Z,15.85
2022-12-31T03:19:48.217Z,20.60
2022-12-31T03:25:06.458Z,29.50
2022-12-31T03:30:08.216Z,56.50
2022-12-31T03:35:08.665Z,46.15
2022-12-31T03:40:08.449Z,32.58
2022-12-31T03:45:06.893Z,69.68
2022-12-31T03:50:05.723Z,61.08
2022-12-31T04:00:01.948Z,78.65
2022-12-31T04:05:00.262Z,103.28
2022-12-31T04:09:58.422Z,112.80
2022-12-31T04:14:58.994Z,111.93
2022-12-31T04:19:57.109Z,107.15
2022-12-31T04:24:55.078Z,144.02
2022-12-31T04:29:54.698Z,113.22
2022-12-31T04:34:52.344Z,41.70
2022-12-31T04:39:50.055Z,47.05
2022-12-31T04:44:47.739Z,21.45
2022-12-31T04:49:47.624Z,17.27
2022-12-31T04:54:45.457Z,22.83
2022-12-31T04:59:43.820Z,22.42
2022-12-31T05:04:44.098Z,16.08
2022-12-31T05:09:42.407Z,16.33
2022-12-31T05:14:41.909Z,18.50
2022-12-31T05:19:41.263Z,31.90
2022-12-31T05:24:40.419Z,33.35
2022-12-31T05:29:41.271Z,107.10
2022-12-31T05:34:41.981Z,93.75
2022-12-31T05:39:43.467Z,64.72
2022-12-31T05:44:43.143Z,103.55
2022-12-31T05:49:41.746Z,80.75
2022-12-31T05:54:39.888Z,118.95
2022-12-31T05:59:41.514Z,118.05
2022-12-31T06:04:39.749Z,87.80
2022-12-31T06:09:38.040Z,67.05
2022-12-31T06:14:42.197Z,54.60
2022-12-31T06:19:43.676Z,51.85
2022-12-31T06:24:42.614Z,47.80
2022-12-31T06:29:45.851Z,75.65
2022-12-31T06:34:44.290Z,33.63
2022-12-31T06:39:42.308Z,29.55
2022-12-31T06:44:42.036Z,30.45
2022-12-31T06:49:41.221Z,36.10
2022-12-31T06:54:40.202Z,26.55
2022-12-31T07:05:02.899Z,25.02
2022-12-31T07:10:29.000Z,24.65
2022-12-31T07:15:55.163Z,25.17
2022-12-31T07:20:57.068Z,82.03
2022-12-31T07:26:11.365Z,52.30
2022-12-31T07:31:24.383Z,99.93
2022-12-31T07:36:31.779Z,98.97
2022-12-31T07:41:47.623Z,113.97
2022-12-31T07:47:00.238Z,27.67
2022-12-31T07:52:01.101Z,47.38
2022-12-31T07:57:01.056Z,49.17
2022-12-31T08:02:31.402Z,19.42
2022-12-31T08:07:48.416Z,21.00
2022-12-31T08:12:49.813Z,13.60
2022-12-31T08:17:47.456Z,24.02
2022-12-31T08:22:57.130Z,39.05
2022-12-31T08:28:16.321Z,47.03
2022-12-31T08:33:39.687Z,32.25
2022-12-31T08:38:59.299Z,25.27
2022-12-31T08:44:08.607Z,17.88
2022-12-31T08:49:08.623Z,11.48
2022-12-31T08:54:06.179Z,14.27
2022-12-31T08:59:38.819Z,11.75
2022-12-31T09:05:03.968Z,11.50
2022-12-31T09:10:09.723Z,10.95
2022-12-31T09:15:42.754Z,13.45
2022-12-31T09:20:43.495Z,13.77
2022-12-31T09:26:20.383Z,73.10
2022-12-31T09:31:28.257Z,53.22
2022-12-31T09:36:32.440Z,128.88
2022-12-31T09:42:07.086Z,52.95
2022-12-31T09:47:33.616Z,35.67
2022-12-31T09:52:48.904Z,49.88
2022-12-31T09:58:07.880Z,53.10
2022-12-31T10:03:10.778Z,86.97
2022-12-31T10:08:42.555Z,60.67
2022-12-31T10:13:50.118Z,22.60
2022-12-31T10:19:00.961Z,14.90
2022-12-31T10:24:09.963Z,15.15
2022-12-31T10:29:14.032Z,17.42
2022-12-31T10:34:50.849Z,14.75
2022-12-31T10:40:00.432Z,13.63
2022-12-31T10:45:37.173Z,12.07
2022-12-31T10:51:01.020Z,10.75
2022-12-31T10:56:01.679Z,7.45
2022-12-31T11:01:07.732Z,8.18
2022-12-31T11:06:20.331Z,12.05
2022-12-31T11:11:43.885Z,8.32
2022-12-31T11:16:59.932Z,7.78
2022-12-31T11:22:11.642Z,8.20
2022-12-31T11:27:57.288Z,9.77
2022-12-31T11:33:25.414Z,13.60
2022-12-31T11:38:52.311Z,11.40
2022-12-31T11:44:07.255Z,17.52
2022-12-31T11:49:26.263Z,15.50
2022-12-31T11:54:47.981Z,16.00
2022-12-31T11:59:45.535Z,14.15
2022-12-31T12:04:43.344Z,12.05
2022-12-31T12:09:42.490Z,13.77
2022-12-31T12:14:43.135Z,17.42
2022-12-31T12:19:48.229Z,10.10
2022-12-31T12:24:57.661Z,11.00
2022-12-31T12:29:54.931Z,10.10
2022-12-31T12:34:53.091Z,9.90
2022-12-31T12:39:57.848Z,9.63
2022-12-31T12:45:14.470Z,8.30
2022-12-31T12:50:22.101Z,8.18
2022-12-31T12:55:47.445Z,9.63
2022-12-31T13:00:56.998Z,10.15
2022-12-31T13:06:09.680Z,11.18
2022-12-31T13:11:16.047Z,9.32
2022-12-31T13:16:33.724Z,11.43
2022-12-31T13:22:01.704Z,11.23
2022-12-31T13:27:17.798Z,10.18
2022-12-31T13:32:24.194Z,7.05
2022-12-31T13:37:31.303Z,7.97
2022-12-31T13:42:50.399Z,11.60
2022-12-31T13:47:54.551Z,8.45
2022-12-31T13:53:07.480Z,11.07
2022-12-31T13:58:16.876Z,12.20
2022-12-31T14:03:24.080Z,12.90
2022-12-31T14:08:21.359Z,18.80
2022-12-31T14:13:40.141Z,11.65
2022-12-31T14:18:48.059Z,11.63
2022-12-31T14:24:05.591Z,14.88
2022-12-31T14:29:12.421Z,15.32
2022-12-31T14:34:15.655Z,21.05
2022-12-31T14:39:39.382Z,19.35
2022-12-31T14:45:13.979Z,20.20
2022-12-31T14:50:29.166Z,18.90
2022-12-31T14:55:29.465Z,14.63
2022-12-31T15:00:41.272Z,15.05
2022-12-31T15:05:50.343Z,19.15
2022-12-31T15:11:18.234Z,15.60
2022-12-31T15:16:44.599Z,17.77
2022-12-31T15:22:19.119Z,13.02
2022-12-31T15:27:28.126Z,21.05
2022-12-31T15:32:37.195Z,18.30
2022-12-31T15:37:36.467Z,15.02
2022-12-31T15:42:50.199Z,22.40
2022-12-31T15:47:52.441Z,23.35
2022-12-31T15:53:00.111Z,25.55
2022-12-31T15:58:03.538Z,21.50
2022-12-31T16:03:01.422Z,22.90
2022-12-31T16:08:00.924Z,20.95
2022-12-31T16:12:59.926Z,24.17
2022-12-31T16:18:22.822Z,25.65
2022-12-31T16:23:25.981Z,17.63
2022-12-31T16:28:28.388Z,16.92
2022-12-31T16:33:25.958Z,19.75
2022-12-31T16:38:24.336Z,18.92
2022-12-31T16:43:27.668Z,17.40
2022-12-31T16:48:25.634Z,27.95
2022-12-31T16:53:26.651Z,23.83
2022-12-31T16:58:33.521Z,19.60
2022-12-31T17:03:31.461Z,27.45
2022-12-31T17:09:04.940Z,26.35
2022-12-31T17:14:08.385Z,22.02
2022-12-31T17:19:05.854Z,24.58
2022-12-31T17:24:07.220Z,22.05
2022-12-31T17:29:06.194Z,25.27
2022-12-31T17:34:17.885Z,25.80
2022-12-31T17:39:20.737Z,27.10
2022-12-31T17:44:22.188Z,37.80
2022-12-31T17:49:28.634Z,36.83
2022-12-31T17:54:26.181Z,50.03
2022-12-31T17:59:33.564Z,42.33
2022-12-31T18:04:30.891Z,33.25
2022-12-31T18:09:28.560Z,35.35
2022-12-31T18:14:25.921Z,35.08
2022-12-31T18:19:54.155Z,38.53
2022-12-31T18:24:40.991Z,44.50
2022-12-31T18:29:38.328Z,36.90
2022-12-31T18:34:35.590Z,32.78
2022-12-31T18:39:33.114Z,45.50
2022-12-31T18:44:30.917Z,36.20
2022-12-31T18:49:28.275Z,36.15
2022-12-31T18:54:25.486Z,35.70
2022-12-31T18:59:22.742Z,39.40
2022-12-31T19:04:27.115Z,54.15
2022-12-31T19:14:42.873Z,50.53
2022-12-31T19:19:40.289Z,51.67
2022-12-31T19:24:37.608Z,44.13
2022-12-31T19:29:34.869Z,47.88
2022-12-31T19:34:32.103Z,56.05
2022-12-31T19:39:29.376Z,68.05
2022-12-31T19:44:27.792Z,59.80
2022-12-31T19:49:25.050Z,54.35
2022-12-31T19:54:22.375Z,52.97
2022-12-31T19:59:19.652Z,52.20
2022-12-31T20:04:18.329Z,47.08
2022-12-31T20:09:15.701Z,46.65
2022-12-31T20:14:13.267Z,34.00
2022-12-31T20:19:10.664Z,39.05
2022-12-31T20:24:08.230Z,37.97
2022-12-31T20:29:05.720Z,50.15
2022-12-31T20:34:03.029Z,47.17
2022-12-31T20:39:00.408Z,51.75
2022-12-31T20:43:57.794Z,49.30
2022-12-31T20:48:58.775Z,45.28
2022-12-31T20:53:59.221Z,51.88
2022-12-31T20:58:57.047Z,48.97
2022-12-31T21:04:10.869Z,44.05
2022-12-31T21:09:08.919Z,46.78
2022-12-31T21:14:06.487Z,55.28
2022-12-31T21:19:03.877Z,53.65
2022-12-31T21:24:01.113Z,48.90
2022-12-31T21:28:58.624Z,51.58
2022-12-31T21:33:56.190Z,49.88
2022-12-31T21:38:53.606Z,62.78
2022-12-31T21:43:51.026Z,52.28
2022-12-31T21:48:48.626Z,43.55
2022-12-31T21:53:46.158Z,36.85
2022-12-31T21:58:46.154Z,36.90
2022-12-31T22:03:44.174Z,37.85
2022-12-31T22:08:43.109Z,40.15
2022-12-31T22:13:41.066Z,33.20
2022-12-31T22:18:40.603Z,31.27
2022-12-31T22:23:38.591Z,29.70
2022-12-31T22:28:39.861Z,30.77
2022-12-31T22:33:37.616Z,40.97
2022-12-31T22:38:35.092Z,34.05
2022-12-31T22:43:34.414Z,32.47
2022-12-31T22:48:31.770Z,43.80
2022-12-31T22:53:29.042Z,36.65
2022-12-31T22:58:26.791Z,36.08
2022-12-31T23:03:24.246Z,45.20
2022-12-31T23:08:23.554Z,50.42
2022-12-31T23:13:43.299Z,43.15
2022-12-31T23:19:05.641Z,38.72
2022-12-31T23:24:04.658Z,37.53
2022-12-31T23:29:02.371Z,37.88
2022-12-31T23:33:59.845Z,41.72
2022-12-31T23:38:57.914Z,39.97
2022-12-31T23:43:55.485Z,52.83
2022-12-31T23:48:53.985Z,72.82
2022-12-31T23:53:51.779Z,93.00
2022-12-31T23:58:49.118Z,85.90
